Terminal Aerodrome Forecast
Issued by NWS

Home | Current Version | Previous Version | Text Only | Print | Product List | Glossary On
Versions: 1 2 3 4 5 6 7 8 9 10 11 12 13 14 15 16 17 18 19 20 21 22 23 24 25
000
FTUS42 KCAE 230200 AAA
TAFDNL
TAF AMD
KDNL 230256Z 2303/2324 08006KT P6SM VCSH BKN060
     FM230700 06005KT P6SM VCSH SCT008 OVC025
     FM230900 07008KT 4SM -RA BR OVC008
     FM231300 08012KT 2SM RA BR OVC004=

USA.gov is the U.S. government's official web portal to all federal, state and local government web resources and services.